Arcturus, Minnesota
Current Conditions -  °F | °C
As of 2:15 PM on Friday 21 Nov 2014 (Local Time) from KGPZ Reporting Station
Clear Clear  
Wind Chill: 16°   Ceiling: Unl
Heat Index: 28°   Visibility: 10mi
Dew Point: 16°   Wind: 18mph
Humidity: 59%   Direction: 200°SSW
Pressure: 29.81"   Gusts: 28mph
Location:  47.3121°N, 93.3823°W
Report Text: KGPZ 212015Z AUTO 20016G24KT 10SM CLR M02/M09 A2981 RMK AO1
Loading
Personal Weather Stations






























Interactive Weather Map New forecast layout! Learn more

10-Day Weather Forecast

Advertisements
Track Severe Weather on mobile